< < Back
Terminal Aerodrome Forecast


Current Version              Previous Versions:   1  2  3  4  5  6  7  8  9  

Terminal Aerodrome Forecast

072
FTUS44 KBMX 011139
TAFTCL
TAF
KTCL 011139Z 0112/0212 04003KT 6SM BR SCT050 SCT250
      TEMPO 0112/0114 5SM BR
     FM011500 03005KT P6SM SCT050 SCT250=



Latest METAR

855
SAUS70 KWBC 012200 RRT
MTRTCL
METAR KTCL 012153Z 03006KT 10SM CLR 32/19 A3004 RMK AO2 SLP171
T03170194


USA.gov is the U.S. government's official web portal to all federal, state and local government web resources and services.